createdAt,value
2023-03-06T00:00:01.074Z,1005.36
2023-03-06T00:01:01.106Z,1005.4
2023-03-06T00:02:01.053Z,1005.33
2023-03-06T00:03:01.101Z,1005.32
2023-03-06T00:04:00.797Z,1005.31
2023-03-06T00:05:00.548Z,1005.27
2023-03-06T00:06:00.434Z,1005.3
2023-03-06T00:07:00.104Z,1005.29
2023-03-06T00:07:59.898Z,1005.28
2023-03-06T00:08:59.571Z,1005.23
2023-03-06T00:10:01.588Z,1005.21
2023-03-06T00:11:01.262Z,1005.25
2023-03-06T00:12:01.145Z,1005.21
2023-03-06T00:13:01.152Z,1005.19
2023-03-06T00:14:01.159Z,1005.19
2023-03-06T00:15:01.245Z,1005.21
2023-03-06T00:16:01.209Z,1005.2
2023-03-06T00:17:01.080Z,1005.19
2023-03-06T00:18:01.083Z,1005.19
2023-03-06T00:19:01.057Z,1005.2
2023-03-06T00:20:01.096Z,1005.16
2023-03-06T00:21:01.109Z,1005.17
2023-03-06T00:22:01.117Z,1005.12
2023-03-06T00:23:01.146Z,1005.13
2023-03-06T00:24:01.114Z,1005.08
2023-03-06T00:25:01.350Z,1005.14
2023-03-06T00:26:01.141Z,1005.12
2023-03-06T00:27:01.043Z,1005.15
2023-03-06T00:28:01.137Z,1005.14
2023-03-06T00:29:01.157Z,1005.1
2023-03-06T00:30:01.151Z,1005.07
2023-03-06T00:31:01.169Z,1005.08
2023-03-06T00:32:01.766Z,1005.08
2023-03-06T00:33:01.781Z,1005.07
2023-03-06T00:34:01.768Z,1005.06
2023-03-06T00:35:02.435Z,1005.02
2023-03-06T00:36:01.847Z,1005.02
2023-03-06T00:37:01.115Z,1005.02
2023-03-06T00:38:01.117Z,1005.01
2023-03-06T00:39:01.121Z,1004.98
2023-03-06T00:40:01.128Z,1004.93
2023-03-06T00:41:01.155Z,1004.96
2023-03-06T00:42:01.140Z,1004.91
2023-03-06T00:43:01.145Z,1004.91
2023-03-06T00:44:01.175Z,1004.92
2023-03-06T00:45:01.171Z,1004.89
2023-03-06T00:46:01.611Z,1004.87
2023-03-06T00:47:01.749Z,1004.84
2023-03-06T00:48:01.751Z,1004.84
2023-03-06T00:49:01.761Z,1004.84
2023-03-06T00:50:01.756Z,1004.79
2023-03-06T00:51:01.090Z,1004.81
2023-03-06T00:52:01.102Z,1004.77
2023-03-06T00:53:01.080Z,1004.77
2023-03-06T00:54:01.209Z,1004.78
2023-03-06T00:55:01.415Z,1004.74
2023-03-06T00:56:01.134Z,1004.73
2023-03-06T00:57:01.111Z,1004.71
2023-03-06T00:58:01.143Z,1004.7
2023-03-06T00:59:01.141Z,1004.73
2023-03-06T01:00:01.487Z,1004.69
2023-03-06T01:01:00.860Z,1004.65
2023-03-06T01:02:01.578Z,1004.65
2023-03-06T01:03:01.482Z,1004.65
2023-03-06T01:04:01.124Z,1004.65
2023-03-06T01:05:01.078Z,1004.62
2023-03-06T01:06:04.070Z,1004.6
2023-03-06T01:07:01.772Z,1004.54
2023-03-06T01:08:01.106Z,1004.53
2023-03-06T01:09:01.094Z,1004.53
2023-03-06T01:10:01.105Z,1004.53
2023-03-06T01:11:06.684Z,1004.59
2023-03-06T01:12:01.711Z,1004.57
2023-03-06T01:13:01.428Z,1004.51
2023-03-06T01:14:02.140Z,1004.53
2023-03-06T01:15:03.149Z,1004.53
2023-03-06T01:16:09.342Z,1004.5
2023-03-06T01:17:01.451Z,1004.52
2023-03-06T01:18:02.585Z,1004.5
2023-03-06T01:19:01.160Z,1004.49
2023-03-06T01:20:01.484Z,1004.46
2023-03-06T01:21:12.600Z,1004.44
2023-03-06T01:22:01.073Z,1004.43
2023-03-06T01:23:01.104Z,1004.37
2023-03-06T01:24:01.084Z,1004.42
2023-03-06T01:25:01.100Z,1004.41
2023-03-06T01:26:15.092Z,1004.39
2023-03-06T01:27:01.111Z,1004.39
2023-03-06T01:28:01.098Z,1004.38
2023-03-06T01:29:01.438Z,1004.35
2023-03-06T01:30:02.132Z,1004.37
2023-03-06T01:31:01.233Z,1004.34
2023-03-06T01:32:01.257Z,1004.36
2023-03-06T01:33:01.134Z,1004.33
2023-03-06T01:34:01.132Z,1004.37
2023-03-06T01:35:01.161Z,1004.35
2023-03-06T01:36:01.157Z,1004.34
2023-03-06T01:37:01.434Z,1004.34
2023-03-06T01:38:01.472Z,1004.33
2023-03-06T01:39:01.945Z,1004.31
2023-03-06T01:40:01.062Z,1004.3
2023-03-06T01:41:01.054Z,1004.25
2023-03-06T01:42:01.051Z,1004.23
2023-03-06T01:43:01.106Z,1004.29
2023-03-06T01:44:01.128Z,1004.3
2023-03-06T01:45:01.112Z,1004.27
2023-03-06T01:46:01.904Z,1004.28
2023-03-06T01:47:01.252Z,1004.21
2023-03-06T01:48:01.130Z,1004.3
2023-03-06T01:49:01.147Z,1004.25
2023-03-06T01:50:01.185Z,1004.26
2023-03-06T01:51:00.947Z,1004.18
2023-03-06T01:52:00.779Z,1004.2
2023-03-06T01:53:00.397Z,1004.22
2023-03-06T01:53:59.996Z,1004.27
2023-03-06T01:54:59.644Z,1004.18
2023-03-06T01:56:01.257Z,1004.19
2023-03-06T01:57:01.896Z,1004.2
2023-03-06T01:58:01.378Z,1004.14
2023-03-06T01:59:01.107Z,1004.12
2023-03-06T02:00:01.109Z,1004.15
2023-03-06T02:01:01.139Z,1004.11
2023-03-06T02:02:01.194Z,1004.12
2023-03-06T02:03:03.939Z,1004.06
2023-03-06T02:04:02.478Z,1004.07
2023-03-06T02:05:01.139Z,1004.05
2023-03-06T02:06:01.049Z,1004.08
2023-03-06T02:07:01.548Z,1004.13
2023-03-06T02:08:01.154Z,1004.09
2023-03-06T02:09:01.068Z,1004.05
2023-03-06T02:10:01.072Z,1004.03
2023-03-06T02:11:02.032Z,1004.06
2023-03-06T02:12:01.092Z,1003.98
2023-03-06T02:13:01.141Z,1004.03
2023-03-06T02:14:01.173Z,1004
2023-03-06T02:15:01.913Z,1004.01
2023-03-06T02:16:02.860Z,1003.96
2023-03-06T02:17:01.187Z,1004.01
2023-03-06T02:18:01.078Z,1004
2023-03-06T02:19:01.815Z,1003.94
2023-03-06T02:20:01.955Z,1003.95
2023-03-06T02:21:01.536Z,1003.97
2023-03-06T02:22:02.376Z,1003.92
2023-03-06T02:23:01.284Z,1003.93
2023-03-06T02:24:01.304Z,1003.96
2023-03-06T02:25:01.757Z,1003.95
2023-03-06T02:26:01.063Z,1003.94
2023-03-06T02:27:01.103Z,1003.89
2023-03-06T02:28:01.097Z,1003.9
2023-03-06T02:29:01.127Z,1003.95
2023-03-06T02:30:01.094Z,1003.95
2023-03-06T02:31:01.140Z,1003.94
2023-03-06T02:32:01.300Z,1003.97
2023-03-06T02:33:01.170Z,1003.96
2023-03-06T02:34:02.017Z,1003.94
2023-03-06T02:35:02.462Z,1003.89
2023-03-06T02:36:01.237Z,1003.97
2023-03-06T02:37:01.391Z,1003.98
2023-03-06T02:38:02.047Z,1003.97
2023-03-06T02:39:02.082Z,1003.94
2023-03-06T02:40:01.205Z,1003.96
2023-03-06T02:41:01.160Z,1003.96
2023-03-06T02:42:01.073Z,1003.91
2023-03-06T02:43:01.127Z,1003.93
2023-03-06T02:44:01.213Z,1003.96
2023-03-06T02:45:01.097Z,1003.94
2023-03-06T02:46:01.163Z,1003.95
2023-03-06T02:47:01.098Z,1003.99
2023-03-06T02:48:01.117Z,1003.89
2023-03-06T02:49:03.782Z,1003.93
2023-03-06T02:50:02.545Z,1003.92
2023-03-06T02:51:01.789Z,1003.91
2023-03-06T02:52:01.764Z,1003.9
2023-03-06T02:53:02.277Z,1003.91
2023-03-06T02:54:01.047Z,1003.95
2023-03-06T02:55:01.156Z,1003.86
2023-03-06T02:56:01.144Z,1003.89
2023-03-06T02:57:04.541Z,1003.88
2023-03-06T02:58:04.910Z,1003.82
2023-03-06T02:59:01.702Z,1003.79
2023-03-06T03:00:01.077Z,1003.83
2023-03-06T03:01:01.103Z,1003.81
2023-03-06T03:02:06.313Z,1003.8
2023-03-06T03:03:01.815Z,1003.77
2023-03-06T03:04:02.049Z,1003.71
2023-03-06T03:05:01.778Z,1003.74
2023-03-06T03:06:01.783Z,1003.73
2023-03-06T03:07:10.305Z,1003.71
2023-03-06T03:08:01.459Z,1003.73
2023-03-06T03:09:01.366Z,1003.7
2023-03-06T03:10:01.416Z,1003.68
2023-03-06T03:11:02.571Z,1003.7
2023-03-06T03:12:13.201Z,1003.66
2023-03-06T03:13:01.789Z,1003.64
2023-03-06T03:14:02.602Z,1003.6
2023-03-06T03:15:02.501Z,1003.59
2023-03-06T03:16:01.107Z,1003.59
2023-03-06T03:17:16.131Z,1003.56
2023-03-06T03:18:02.105Z,1003.59
2023-03-06T03:19:02.256Z,1003.57
2023-03-06T03:20:01.216Z,1003.53
2023-03-06T03:21:01.119Z,1003.52
2023-03-06T03:22:01.177Z,1003.5
2023-03-06T03:23:01.978Z,1003.5
2023-03-06T03:24:02.434Z,1003.43
2023-03-06T03:25:01.149Z,1003.46
2023-03-06T03:26:01.466Z,1003.46
2023-03-06T03:27:01.964Z,1003.47
2023-03-06T03:28:02.775Z,1003.43
2023-03-06T03:29:01.146Z,1003.38
2023-03-06T03:30:01.163Z,1003.38
2023-03-06T03:31:01.931Z,1003.4
2023-03-06T03:32:01.154Z,1003.34
2023-03-06T03:33:01.096Z,1003.31
2023-03-06T03:34:00.662Z,1003.32
2023-03-06T03:35:01.160Z,1003.31
2023-03-06T03:36:01.496Z,1003.3
2023-03-06T03:37:01.488Z,1003.28
2023-03-06T03:38:01.148Z,1003.25
2023-03-06T03:39:01.872Z,1003.28
2023-03-06T03:40:01.822Z,1003.28
2023-03-06T03:41:01.153Z,1003.28
2023-03-06T03:42:01.864Z,1003.27
2023-03-06T03:43:01.788Z,1003.3
2023-03-06T03:44:01.435Z,1003.22
2023-03-06T03:45:01.169Z,1003.28
2023-03-06T03:46:01.457Z,1003.23
2023-03-06T03:47:01.072Z,1003.26
2023-03-06T03:48:01.860Z,1003.26
2023-03-06T03:49:01.077Z,1003.27
2023-03-06T03:50:00.769Z,1003.24
2023-03-06T03:51:00.461Z,1003.21
2023-03-06T03:52:00.210Z,1003.21
2023-03-06T03:52:59.962Z,1003.22
2023-03-06T03:53:59.928Z,1003.23
2023-03-06T03:54:59.560Z,1003.21
2023-03-06T03:56:01.131Z,1003.19
2023-03-06T03:57:01.157Z,1003.23
2023-03-06T03:58:08.054Z,1003.17
2023-03-06T03:59:00.922Z,1003.2
2023-03-06T04:00:01.487Z,1003.15
2023-03-06T04:01:01.164Z,1003.13
2023-03-06T04:02:01.193Z,1003.16
2023-03-06T04:03:01.187Z,1003.21
2023-03-06T04:04:01.074Z,1003.19
2023-03-06T04:05:01.141Z,1003.18
2023-03-06T04:06:01.080Z,1003.19
2023-03-06T04:07:01.096Z,1003.2
2023-03-06T04:08:01.218Z,1003.2
2023-03-06T04:09:01.807Z,1003.22
2023-03-06T04:10:01.115Z,1003.24
2023-03-06T04:11:01.113Z,1003.18
2023-03-06T04:12:01.109Z,1003.24
2023-03-06T04:13:01.062Z,1003.21
2023-03-06T04:14:01.066Z,1003.19
2023-03-06T04:15:01.229Z,1003.17
2023-03-06T04:16:01.477Z,1003.22
2023-03-06T04:17:02.968Z,1003.22
2023-03-06T04:18:01.168Z,1003.22
2023-03-06T04:19:01.062Z,1003.24
2023-03-06T04:20:01.732Z,1003.22
2023-03-06T04:21:01.078Z,1003.17
2023-03-06T04:22:01.098Z,1003.25
2023-03-06T04:23:01.095Z,1003.22
2023-03-06T04:24:01.079Z,1003.2
2023-03-06T04:25:01.029Z,1003.24
2023-03-06T04:26:01.091Z,1003.16
2023-03-06T04:27:01.114Z,1003.16
2023-03-06T04:28:01.144Z,1003.2
2023-03-06T04:29:01.422Z,1003.2
2023-03-06T04:30:08.260Z,1003.22
2023-03-06T04:31:02.710Z,1003.17
2023-03-06T04:32:01.327Z,1003.18
2023-03-06T04:33:02.849Z,1003.17
2023-03-06T04:34:01.882Z,1003.17
2023-03-06T04:35:01.465Z,1003.16
2023-03-06T04:36:01.074Z,1003.18
2023-03-06T04:37:01.511Z,1003.2
2023-03-06T04:38:05.656Z,1003.14
2023-03-06T04:39:01.408Z,1003.1
2023-03-06T04:40:01.122Z,1003.12
2023-03-06T04:41:01.107Z,1003.04
2023-03-06T04:42:01.111Z,1003.1
2023-03-06T04:43:08.478Z,1003.09
2023-03-06T04:44:02.366Z,1003.04
2023-03-06T04:45:01.205Z,1003.02
2023-03-06T04:46:01.286Z,1003.06
2023-03-06T04:47:04.106Z,1003.04
2023-03-06T04:48:11.421Z,1003
2023-03-06T04:49:01.537Z,1002.98
2023-03-06T04:50:02.116Z,1003
2023-03-06T04:51:01.173Z,1002.94
2023-03-06T04:52:01.082Z,1002.96
2023-03-06T04:53:14.117Z,1002.94
2023-03-06T04:54:01.062Z,1002.9
2023-03-06T04:55:01.085Z,1002.85
2023-03-06T04:56:01.238Z,1002.92
2023-03-06T04:57:01.787Z,1002.88
2023-03-06T04:58:16.078Z,1002.9
2023-03-06T04:59:02.113Z,1002.87
2023-03-06T05:00:01.254Z,1002.85
2023-03-06T05:01:02.115Z,1002.82
2023-03-06T05:02:01.156Z,1002.86
2023-03-06T05:03:01.981Z,1002.79
2023-03-06T05:04:00.749Z,1002.79
2023-03-06T05:05:01.177Z,1002.79
2023-03-06T05:06:01.456Z,1002.83
2023-03-06T05:07:01.443Z,1002.76
2023-03-06T05:08:01.320Z,1002.75
2023-03-06T05:09:02.265Z,1002.78
2023-03-06T05:10:01.904Z,1002.74
2023-03-06T05:11:02.483Z,1002.74
2023-03-06T05:12:02.661Z,1002.71
2023-03-06T05:13:01.725Z,1002.73
2023-03-06T05:14:01.447Z,1002.75
2023-03-06T05:15:01.480Z,1002.74
2023-03-06T05:16:02.134Z,1002.7
2023-03-06T05:17:01.223Z,1002.7
2023-03-06T05:18:01.283Z,1002.72
2023-03-06T05:19:01.896Z,1002.67
2023-03-06T05:20:01.142Z,1002.72
2023-03-06T05:21:01.169Z,1002.68
2023-03-06T05:22:01.137Z,1002.66
2023-03-06T05:23:01.163Z,1002.62
2023-03-06T05:24:01.321Z,1002.64
2023-03-06T05:25:01.339Z,1002.66
2023-03-06T05:26:01.468Z,1002.64
2023-03-06T05:27:01.454Z,1002.61
2023-03-06T05:28:01.109Z,1002.63
2023-03-06T05:29:01.244Z,1002.69
2023-03-06T05:30:01.093Z,1002.63
2023-03-06T05:31:03.372Z,1002.71
2023-03-06T05:32:01.323Z,1002.67
2023-03-06T05:33:01.117Z,1002.72
2023-03-06T05:34:01.234Z,1002.69
2023-03-06T05:35:02.117Z,1002.67
2023-03-06T05:36:02.258Z,1002.69
2023-03-06T05:37:01.332Z,1002.76
2023-03-06T05:38:02.081Z,1002.77
2023-03-06T05:39:01.187Z,1002.77
2023-03-06T05:40:00.885Z,1002.71
2023-03-06T05:41:00.640Z,1002.78
2023-03-06T05:42:00.368Z,1002.71
2023-03-06T05:43:00.154Z,1002.78
2023-03-06T05:43:59.900Z,1002.82
2023-03-06T05:44:59.546Z,1002.8
2023-03-06T05:46:02.265Z,1002.86
2023-03-06T05:47:01.099Z,1002.84
2023-03-06T05:48:00.805Z,1002.82
2023-03-06T05:49:00.566Z,1002.77
2023-03-06T05:50:00.211Z,1002.84
2023-03-06T05:50:59.790Z,1002.82
2023-03-06T05:52:01.780Z,1002.82
2023-03-06T05:53:01.571Z,1002.85
2023-03-06T05:54:01.542Z,1002.89
2023-03-06T05:55:01.256Z,1002.9
2023-03-06T05:56:01.688Z,1002.9
2023-03-06T05:57:00.735Z,1002.93
2023-03-06T05:58:00.462Z,1002.87
2023-03-06T05:59:00.147Z,1002.94
2023-03-06T05:59:59.844Z,1002.92
2023-03-06T06:01:03.269Z,1002.91
2023-03-06T06:02:01.794Z,1002.88
2023-03-06T06:03:01.497Z,1002.89
2023-03-06T06:04:01.116Z,1002.88
2023-03-06T06:05:00.686Z,1002.88
2023-03-06T06:06:00.386Z,1002.88
2023-03-06T06:06:59.998Z,1002.88
2023-03-06T06:07:59.607Z,1002.89
2023-03-06T06:09:01.336Z,1002.92
2023-03-06T06:10:03.523Z,1002.95
2023-03-06T06:11:01.052Z,1002.94
2023-03-06T06:12:01.364Z,1002.96
2023-03-06T06:13:01.536Z,1002.92
2023-03-06T06:14:01.169Z,1002.92
2023-03-06T06:15:01.906Z,1002.96
2023-03-06T06:16:01.884Z,1002.92
2023-03-06T06:17:01.076Z,1002.91
2023-03-06T06:18:01.126Z,1002.9
2023-03-06T06:19:01.143Z,1002.86
2023-03-06T06:20:00.920Z,1002.9
2023-03-06T06:21:01.479Z,1002.87
2023-03-06T06:22:01.230Z,1002.92
2023-03-06T06:23:01.121Z,1002.88
2023-03-06T06:24:04.165Z,1002.87
2023-03-06T06:25:01.237Z,1002.9
2023-03-06T06:26:01.299Z,1002.89
2023-03-06T06:27:03.773Z,1002.82
2023-03-06T06:28:01.569Z,1002.86
2023-03-06T06:29:07.711Z,1002.85
2023-03-06T06:30:01.397Z,1002.87
2023-03-06T06:31:01.158Z,1002.86
2023-03-06T06:32:01.528Z,1002.87
2023-03-06T06:33:01.091Z,1002.83
2023-03-06T06:34:06.128Z,1002.89
2023-03-06T06:35:02.084Z,1002.88
2023-03-06T06:36:00.948Z,1002.85
2023-03-06T06:37:01.141Z,1002.87
2023-03-06T06:38:01.121Z,1002.89
2023-03-06T06:39:14.817Z,1002.88
2023-03-06T06:40:00.911Z,1002.84
2023-03-06T06:41:32.976Z,1002.85
2023-03-06T06:42:25.898Z,1002.81
2023-03-06T06:43:01.157Z,1002.83
2023-03-06T06:44:01.138Z,1002.83
2023-03-06T06:45:01.208Z,1002.86
2023-03-06T06:46:21.109Z,1002.84
2023-03-06T06:48:01.304Z,1002.87
2023-03-06T06:49:01.082Z,1002.91
2023-03-06T06:50:01.118Z,1002.9
2023-03-06T06:51:01.103Z,1002.85
2023-03-06T06:52:01.155Z,1002.89
2023-03-06T06:53:03.784Z,1002.83
2023-03-06T06:54:01.113Z,1002.87
2023-03-06T06:55:01.117Z,1002.88
2023-03-06T06:56:01.048Z,1002.92
2023-03-06T06:57:01.133Z,1002.88
2023-03-06T06:58:01.363Z,1002.82
2023-03-06T06:59:15.740Z,1002.85
2023-03-06T07:00:01.099Z,1002.84
2023-03-06T07:01:01.065Z,1002.83
2023-03-06T07:02:01.060Z,1002.84
2023-03-06T07:03:01.459Z,1002.85
2023-03-06T07:04:01.114Z,1002.84
2023-03-06T07:05:04.531Z,1002.82
2023-03-06T07:06:01.470Z,1002.86
2023-03-06T07:07:01.355Z,1002.88
2023-03-06T07:08:01.386Z,1002.83
2023-03-06T07:09:01.390Z,1002.83
2023-03-06T07:10:01.112Z,1002.83
2023-03-06T07:11:01.123Z,1002.82
2023-03-06T07:12:01.164Z,1002.86
2023-03-06T07:13:01.074Z,1002.84
2023-03-06T07:14:01.196Z,1002.83
2023-03-06T07:15:01.068Z,1002.83
2023-03-06T07:16:01.461Z,1002.77
2023-03-06T07:17:01.487Z,1002.78
2023-03-06T07:18:01.477Z,1002.75
2023-03-06T07:19:01.112Z,1002.79
2023-03-06T07:20:01.113Z,1002.82
2023-03-06T07:21:01.541Z,1002.78
2023-03-06T07:22:01.076Z,1002.78
2023-03-06T07:23:01.084Z,1002.83
2023-03-06T07:24:01.211Z,1002.84
2023-03-06T07:25:01.463Z,1002.85
2023-03-06T07:26:01.054Z,1002.9
2023-03-06T07:27:01.055Z,1002.88
2023-03-06T07:28:01.212Z,1002.81
2023-03-06T07:29:01.179Z,1002.86
2023-03-06T07:30:01.860Z,1002.86
2023-03-06T07:31:02.639Z,1002.86
2023-03-06T07:32:01.435Z,1002.84
2023-03-06T07:33:02.284Z,1002.88
2023-03-06T07:34:03.777Z,1002.87
2023-03-06T07:35:19.026Z,1002.84
2023-03-06T07:36:01.490Z,1002.85
2023-03-06T07:37:01.093Z,1002.88
2023-03-06T07:38:01.093Z,1002.9
2023-03-06T07:39:00.776Z,1002.88
2023-03-06T07:40:00.362Z,1002.84
2023-03-06T07:41:00.119Z,1002.89
2023-03-06T07:41:59.861Z,1002.88
2023-03-06T07:43:16.954Z,1002.88
2023-03-06T07:44:00.547Z,1002.92
2023-03-06T07:45:00.302Z,1002.91
2023-03-06T07:46:00.000Z,1002.94
2023-03-06T07:46:59.704Z,1002.91
2023-03-06T07:48:01.291Z,1002.9
2023-03-06T07:49:01.150Z,1002.95
2023-03-06T07:50:01.085Z,1002.91
2023-03-06T07:51:01.176Z,1002.86
2023-03-06T07:52:01.185Z,1002.89
2023-03-06T07:53:01.212Z,1002.9
2023-03-06T07:54:01.474Z,1002.89
2023-03-06T07:55:01.101Z,1002.93
2023-03-06T07:56:01.125Z,1002.88
2023-03-06T07:57:01.106Z,1002.91
2023-03-06T07:58:01.099Z,1002.88
2023-03-06T07:59:01.130Z,1002.89
2023-03-06T08:00:01.140Z,1002.89
2023-03-06T08:01:01.007Z,1002.87
2023-03-06T08:02:01.534Z,1002.89
2023-03-06T08:03:01.195Z,1002.84
2023-03-06T08:04:01.209Z,1002.93
2023-03-06T08:05:03.836Z,1002.91
2023-03-06T08:06:01.870Z,1002.85
2023-03-06T08:07:01.174Z,1002.88
2023-03-06T08:08:00.566Z,1002.92
2023-03-06T08:09:00.260Z,1002.91
2023-03-06T08:10:05.408Z,1002.94
2023-03-06T08:11:01.443Z,1002.92
2023-03-06T08:12:02.107Z,1002.88
2023-03-06T08:13:03.486Z,1002.89
2023-03-06T08:14:01.195Z,1002.91
2023-03-06T08:15:06.925Z,1002.95
2023-03-06T08:16:01.582Z,1002.91
2023-03-06T08:17:01.128Z,1002.88
2023-03-06T08:18:01.143Z,1002.94
2023-03-06T08:19:01.165Z,1002.88
2023-03-06T08:20:09.806Z,1002.93
2023-03-06T08:21:00.955Z,1002.92
2023-03-06T08:22:01.166Z,1002.91
2023-03-06T08:23:01.167Z,1002.93
2023-03-06T08:24:01.133Z,1002.88
2023-03-06T08:25:11.874Z,1002.95
2023-03-06T08:26:01.070Z,1002.91
2023-03-06T08:27:01.100Z,1002.95
2023-03-06T08:28:01.244Z,1002.93
2023-03-06T08:29:01.115Z,1002.93
2023-03-06T08:30:14.691Z,1002.91
2023-03-06T08:31:01.921Z,1002.91
2023-03-06T08:32:01.378Z,1002.91
2023-03-06T08:33:01.407Z,1002.87
2023-03-06T08:34:02.154Z,1002.89
2023-03-06T08:35:16.781Z,1002.94
2023-03-06T08:36:02.378Z,1002.95
2023-03-06T08:37:01.527Z,1002.94
2023-03-06T08:38:01.177Z,1002.96
2023-03-06T08:39:01.158Z,1002.94
2023-03-06T08:40:01.191Z,1002.93
2023-03-06T08:41:01.437Z,1002.92
2023-03-06T08:42:01.181Z,1002.91
2023-03-06T08:43:02.565Z,1002.95
2023-03-06T08:44:01.100Z,1002.91
2023-03-06T08:45:01.090Z,1002.94
2023-03-06T08:46:01.173Z,1002.95
2023-03-06T08:47:01.100Z,1002.93
2023-03-06T08:48:02.130Z,1002.95
2023-03-06T08:49:01.128Z,1002.92
2023-03-06T08:50:01.059Z,1002.92
2023-03-06T08:51:01.114Z,1002.96
2023-03-06T08:52:01.125Z,1002.89
2023-03-06T08:53:01.181Z,1002.95
2023-03-06T08:54:01.147Z,1002.93
2023-03-06T08:55:01.160Z,1002.9
2023-03-06T08:56:01.150Z,1002.93
2023-03-06T08:57:01.455Z,1002.91
2023-03-06T08:58:01.172Z,1002.92
2023-03-06T08:59:01.598Z,1002.91
2023-03-06T09:00:01.197Z,1002.89
2023-03-06T09:01:02.977Z,1002.93
2023-03-06T09:02:02.090Z,1002.93
2023-03-06T09:03:02.066Z,1002.94
2023-03-06T09:04:01.150Z,1002.87
2023-03-06T09:05:01.148Z,1002.94
2023-03-06T09:06:01.266Z,1002.91
2023-03-06T09:07:04.037Z,1002.93
2023-03-06T09:08:01.122Z,1002.93
2023-03-06T09:09:01.124Z,1002.88
2023-03-06T09:10:01.157Z,1002.95
2023-03-06T09:11:02.173Z,1002.94
2023-03-06T09:12:01.464Z,1002.91
2023-03-06T09:13:01.420Z,1002.9
2023-03-06T09:14:01.373Z,1002.92
2023-03-06T09:15:01.374Z,1002.95
2023-03-06T09:16:02.748Z,1002.97
2023-03-06T09:17:01.085Z,1002.92
2023-03-06T09:18:01.175Z,1002.94
2023-03-06T09:19:01.139Z,1002.92
2023-03-06T09:20:00.814Z,1002.92
2023-03-06T09:21:01.087Z,1002.96
2023-03-06T09:22:01.082Z,1003.04
2023-03-06T09:23:01.315Z,1002.99
2023-03-06T09:24:01.485Z,1002.97
2023-03-06T09:25:01.508Z,1002.99
2023-03-06T09:26:01.583Z,1002.99
2023-03-06T09:27:02.858Z,1002.98
2023-03-06T09:28:10.872Z,1002.94
2023-03-06T09:29:01.577Z,1002.97
2023-03-06T09:30:01.491Z,1002.98
2023-03-06T09:31:01.419Z,1002.93
2023-03-06T09:32:01.250Z,1002.96
2023-03-06T09:33:01.586Z,1002.94
2023-03-06T09:34:01.221Z,1002.91
2023-03-06T09:35:04.123Z,1002.92
2023-03-06T09:36:01.958Z,1002.95
2023-03-06T09:37:01.097Z,1002.88
2023-03-06T09:38:01.114Z,1002.86
2023-03-06T09:39:01.209Z,1002.86
2023-03-06T09:40:01.127Z,1002.83
2023-03-06T09:41:00.838Z,1002.86
2023-03-06T09:42:00.520Z,1002.88
2023-03-06T09:43:00.217Z,1002.9
2023-03-06T09:44:00.176Z,1002.89
2023-03-06T09:45:00.269Z,1002.88
2023-03-06T09:45:59.985Z,1002.84
2023-03-06T09:46:59.630Z,1002.84
2023-03-06T09:48:01.875Z,1002.8
2023-03-06T09:49:01.784Z,1002.82
2023-03-06T09:50:02.142Z,1002.84
2023-03-06T09:51:01.576Z,1002.81
2023-03-06T09:52:01.106Z,1002.82
2023-03-06T09:53:01.301Z,1002.79
2023-03-06T09:54:01.230Z,1002.83
2023-03-06T09:55:01.549Z,1002.79
2023-03-06T09:56:01.111Z,1002.76
2023-03-06T09:57:01.126Z,1002.79
2023-03-06T09:58:01.613Z,1002.73
2023-03-06T09:59:01.159Z,1002.76
2023-03-06T10:00:04.022Z,1002.74
2023-03-06T10:01:00.940Z,1002.72
2023-03-06T10:02:01.366Z,1002.73
2023-03-06T10:03:01.628Z,1002.75
2023-03-06T10:04:01.185Z,1002.71
2023-03-06T10:05:00.886Z,1002.75
2023-03-06T10:06:02.965Z,1002.75
2023-03-06T10:07:01.111Z,1002.76
2023-03-06T10:08:01.155Z,1002.76
2023-03-06T10:09:01.097Z,1002.71
2023-03-06T10:10:01.132Z,1002.7
2023-03-06T10:11:05.995Z,1002.74
2023-03-06T10:12:02.543Z,1002.7
2023-03-06T10:13:01.279Z,1002.75
2023-03-06T10:14:00.936Z,1002.71
2023-03-06T10:15:01.125Z,1002.73
2023-03-06T10:16:08.748Z,1002.76
2023-03-06T10:17:01.169Z,1002.74
2023-03-06T10:18:01.153Z,1002.75
2023-03-06T10:19:01.353Z,1002.7
2023-03-06T10:20:01.453Z,1002.72
2023-03-06T10:21:19.045Z,1002.76
2023-03-06T10:22:01.145Z,1002.68
2023-03-06T10:23:04.974Z,1002.68
2023-03-06T10:24:01.144Z,1002.66
2023-03-06T10:25:01.141Z,1002.71
2023-03-06T10:26:14.498Z,1002.65
2023-03-06T10:27:01.264Z,1002.71
2023-03-06T10:28:02.135Z,1002.72
2023-03-06T10:29:04.015Z,1002.69
2023-03-06T10:30:03.571Z,1002.68
2023-03-06T10:31:01.504Z,1002.65
2023-03-06T10:32:01.520Z,1002.65
2023-03-06T10:33:02.645Z,1002.65
2023-03-06T10:34:01.176Z,1002.71
2023-03-06T10:35:01.807Z,1002.7
2023-03-06T10:36:01.118Z,1002.65
2023-03-06T10:37:01.056Z,1002.58
2023-03-06T10:38:01.439Z,1002.64
2023-03-06T10:39:01.052Z,1002.59
2023-03-06T10:40:01.154Z,1002.59
2023-03-06T10:41:01.438Z,1002.58
2023-03-06T10:42:01.114Z,1002.67
2023-03-06T10:43:11.181Z,1002.63
2023-03-06T10:44:01.181Z,1002.62
2023-03-06T10:45:01.240Z,1002.63
2023-03-06T10:46:01.399Z,1002.61
2023-03-06T10:47:01.059Z,1002.62
2023-03-06T10:48:01.181Z,1002.61
2023-03-06T10:49:01.164Z,1002.61
2023-03-06T10:50:01.209Z,1002.59
2023-03-06T10:51:04.679Z,1002.55
2023-03-06T10:52:01.755Z,1002.61
2023-03-06T10:53:01.753Z,1002.59
2023-03-06T10:54:01.463Z,1002.59
2023-03-06T10:55:01.362Z,1002.59
2023-03-06T10:56:01.809Z,1002.55
2023-03-06T10:57:01.500Z,1002.53
2023-03-06T10:58:01.223Z,1002.52
2023-03-06T10:59:01.434Z,1002.56
2023-03-06T11:00:01.329Z,1002.54
2023-03-06T11:01:01.372Z,1002.52
2023-03-06T11:02:01.560Z,1002.55
2023-03-06T11:03:01.502Z,1002.56
2023-03-06T11:04:01.391Z,1002.52
2023-03-06T11:05:02.208Z,1002.46
2023-03-06T11:06:01.448Z,1002.44
2023-03-06T11:07:02.179Z,1002.49
2023-03-06T11:08:01.182Z,1002.44
2023-03-06T11:09:01.183Z,1002.42
2023-03-06T11:10:01.231Z,1002.37
2023-03-06T11:11:01.409Z,1002.42
2023-03-06T11:12:01.103Z,1002.41
2023-03-06T11:13:02.607Z,1002.39
2023-03-06T11:14:01.113Z,1002.41
2023-03-06T11:15:01.212Z,1002.37
2023-03-06T11:16:01.202Z,1002.39
2023-03-06T11:17:01.059Z,1002.37
2023-03-06T11:18:01.072Z,1002.36
2023-03-06T11:19:01.256Z,1002.42
2023-03-06T11:20:01.538Z,1002.35
2023-03-06T11:21:02.337Z,1002.34
2023-03-06T11:22:02.065Z,1002.29
2023-03-06T11:23:02.093Z,1002.27
2023-03-06T11:24:01.171Z,1002.32
2023-03-06T11:25:01.338Z,1002.29
2023-03-06T11:26:01.380Z,1002.29
2023-03-06T11:27:01.075Z,1002.27
2023-03-06T11:28:01.087Z,1002.26
2023-03-06T11:29:01.497Z,1002.25
2023-03-06T11:30:01.197Z,1002.23
2023-03-06T11:31:02.088Z,1002.29
2023-03-06T11:32:01.883Z,1002.25
2023-03-06T11:33:00.953Z,1002.21
2023-03-06T11:34:01.520Z,1002.16
2023-03-06T11:35:01.698Z,1002.18
2023-03-06T11:36:01.767Z,1002.17
2023-03-06T11:37:01.141Z,1002.23
2023-03-06T11:38:01.156Z,1002.21
2023-03-06T11:39:01.169Z,1002.28
2023-03-06T11:40:01.282Z,1002.22
2023-03-06T11:41:01.367Z,1002.24
2023-03-06T11:42:01.897Z,1002.23
2023-03-06T11:43:02.520Z,1002.22
2023-03-06T11:44:01.094Z,1002.17
2023-03-06T11:45:02.901Z,1002.2
2023-03-06T11:46:01.535Z,1002.15
2023-03-06T11:47:04.077Z,1002.19
2023-03-06T11:48:01.783Z,1002.2
2023-03-06T11:49:01.155Z,1002.16
2023-03-06T11:50:01.133Z,1002.16
2023-03-06T11:51:01.512Z,1002.13
2023-03-06T11:52:07.677Z,1002.11
2023-03-06T11:53:01.153Z,1002.06
2023-03-06T11:54:01.181Z,1002.07
2023-03-06T11:55:01.275Z,1002.12
2023-03-06T11:56:01.062Z,1002.03
2023-03-06T11:57:09.953Z,1002.1
2023-03-06T11:58:01.096Z,1002.02
2023-03-06T11:59:01.128Z,1002
2023-03-06T12:00:01.632Z,1002.06
2023-03-06T12:01:01.309Z,1001.96
2023-03-06T12:02:13.611Z,1002
2023-03-06T12:03:01.103Z,1002
2023-03-06T12:04:01.467Z,1002.02
2023-03-06T12:05:01.308Z,1002
2023-03-06T12:06:01.113Z,1002.04
2023-03-06T12:07:16.769Z,1001.95
2023-03-06T12:08:01.157Z,1001.93
2023-03-06T12:09:01.154Z,1001.94